Terminal Aerodrome Forecast
Issued by NWS Glasgow, MT

Home | Current Version | Previous Version | Text Only | Print | Product List | Glossary On
Versions: 1 2 3 4 5 6 7 8 9 10 11 12 13
000
FTUS45 KGGW 252200 AAA
TAFGGW
TAF AMD
KGGW 252233Z 2523/2618 34010KT P6SM OVC017
     FM260100 33009KT P6SM BKN050
     FM260600 VRB04KT P6SM SCT050 BKN200
     FM261500 VRB04KT P6SM BKN020 OVC050=

USA.gov is the U.S. government's official web portal to all federal, state and local government web resources and services.